Time;durP1;ratioP1;P1;durP2;ratioP2;P2;SDS_P1;SDS_P2;PMS_P1;PMS_P2;Temp;Humidity;BMP_temperature;BMP_pressure;BME280_temperature;BME280_humidity;BME280_pressure;Samples;Min_cycle;Max_cycle;Signal;HPM_P1;HPM_P2
2024/01/18 09:25:48;;;;;;;19.13;12.95;;;;;;;;;;4928115;29;20052;-91
2024/01/18 09:28:15;;;;;;;20.70;14.75;;;;;;;;;;4930206;29;20040;-96
2024/01/18 09:30:43;;;;;;;20.33;13.90;;;;;;;;;;4929500;29;20034;-92
2024/01/18 09:33:09;;;;;;;19.05;14.20;;;;;;;;;;4917760;29;20095;-94
2024/01/18 09:35:40;;;;;;;16.27;13.18;;;;;;;;;;4930315;29;20031;-96
2024/01/18 09:38:11;;;;;;;16.20;12.25;;;;;;;;;;4931176;29;20179;-92
2024/01/18 09:40:41;;;;;;;17.42;13.50;;;;;;;;;;5090639;23;20128;-90
2024/01/18 09:43:09;;;;;;;15.77;12.40;;;;;;;;;;4947756;29;20031;-96
2024/01/18 09:45:49;;;;;;;15.57;12.18;;;;;;;;;;4948714;23;20099;-96
2024/01/18 09:48:19;;;;;;;15.55;11.30;;;;;;;;;;4892362;29;20055;-94
2024/01/18 09:53:44;;;;;;;18.13;12.63;;;;;;;;;;4951090;29;19926;-94
2024/01/18 09:57:03;;;;;;;14.52;11.98;;;;;;;;;;4952852;23;20115;-90
2024/01/18 09:59:32;;;;;;;14.50;11.13;;;;;;;;;;4960159;23;20043;-90
2024/01/18 10:01:58;;;;;;;14.65;11.43;;;;;;;;;;4967901;28;20564;-92
2024/01/18 10:04:27;;;;;;;15.50;12.38;;;;;;;;;;4956278;29;20035;-95
2024/01/18 10:06:53;;;;;;;14.45;11.63;;;;;;;;;;4940211;29;20038;-92
2024/01/18 10:09:19;;;;;;;13.35;11.00;;;;;;;;;;4957528;29;20391;-95
2024/01/18 10:11:53;;;;;;;14.32;11.73;;;;;;;;;;4959162;29;20070;-90
2024/01/18 10:14:41;;;;;;;14.70;11.80;;;;;;;;;;4946557;29;20046;-92
2024/01/18 10:17:08;;;;;;;14.10;10.85;;;;;;;;;;4950287;29;20126;-94
2024/01/18 10:19:57;;;;;;;17.77;12.13;;;;;;;;;;4953277;29;20051;-93
2024/01/18 10:22:23;;;;;;;13.68;10.90;;;;;;;;;;4941467;29;20023;-94
2024/01/18 10:24:49;;;;;;;14.43;11.30;;;;;;;;;;4940879;29;20031;-92
2024/01/18 10:27:18;;;;;;;16.83;11.20;;;;;;;;;;4941576;29;20498;-96
2024/01/18 10:29:43;;;;;;;14.55;11.13;;;;;;;;;;4957490;29;20024;-91
2024/01/18 10:32:09;;;;;;;11.90;10.27;;;;;;;;;;4943036;29;20081;-96
2024/01/18 10:34:38;;;;;;;13.25;10.52;;;;;;;;;;4950500;29;20027;-93
2024/01/18 10:37:04;;;;;;;10.77;9.60;;;;;;;;;;4943094;29;20114;-88
2024/01/18 10:39:40;;;;;;;11.10;9.65;;;;;;;;;;4941310;29;20031;-95
2024/01/18 10:42:09;;;;;;;10.45;8.98;;;;;;;;;;4958583;28;20027;-89
2024/01/18 10:44:43;;;;;;;12.20;9.80;;;;;;;;;;4940936;29;20030;-91
2024/01/18 10:58:34;;;;;;;10.05;8.82;;;;;;;;;;5113677;23;20047;-89
2024/01/18 11:01:25;;;;;;;11.25;9.43;;;;;;;;;;4946221;29;20042;-90
2024/01/18 11:04:05;;;;;;;10.70;9.15;;;;;;;;;;4968279;29;20033;-90
2024/01/18 11:06:33;;;;;;;10.57;9.32;;;;;;;;;;4966082;29;20119;-89
2024/01/18 11:09:00;;;;;;;11.25;8.68;;;;;;;;;;4963619;29;20033;-89
2024/01/18 11:11:26;;;;;;;12.15;8.93;;;;;;;;;;4943115;29;20098;-89
2024/01/18 11:13:52;;;;;;;12.57;9.75;;;;;;;;;;4929722;29;20039;-89
2024/01/18 11:19:03;;;;;;;11.27;9.13;;;;;;;;;;5427859;23;20043;-89
2024/01/18 11:21:40;;;;;;;10.13;9.10;;;;;;;;;;4948184;29;20099;-90
2024/01/18 11:24:17;;;;;;;11.20;9.45;;;;;;;;;;4942521;23;20498;-95
2024/01/18 11:26:45;;;;;;;10.43;8.55;;;;;;;;;;4930201;29;20038;-88
2024/01/18 11:29:56;;;;;;;10.73;8.63;;;;;;;;;;4907732;29;20035;-88
2024/01/18 11:32:23;;;;;;;8.27;7.32;;;;;;;;;;4948806;29;20128;-88
2024/01/18 11:35:11;;;;;;;7.68;6.88;;;;;;;;;;4949978;29;20031;-88
2024/01/18 11:37:38;;;;;;;10.37;8.77;;;;;;;;;;4945350;29;20028;-89
2024/01/18 11:40:29;;;;;;;11.60;8.63;;;;;;;;;;4926821;29;20036;-88
2024/01/18 11:47:10;;;;;;;11.63;10.10;;;;;;;;;;4974714;28;20054;-88
2024/01/18 11:49:45;;;;;;;12.70;9.25;;;;;;;;;;5016035;23;20047;-89
2024/01/18 11:52:15;;;;;;;11.00;9.63;;;;;;;;;;4966130;29;20031;-89
2024/01/18 11:54:42;;;;;;;14.13;11.05;;;;;;;;;;4960244;29;20035;-90
2024/01/18 11:57:14;;;;;;;11.50;9.27;;;;;;;;;;4939309;29;20078;-95
2024/01/18 11:59:44;;;;;;;11.60;9.02;;;;;;;;;;4958669;29;20024;-89
2024/01/18 12:02:45;;;;;;;10.35;8.98;;;;;;;;;;4948044;29;20023;-92
2024/01/18 12:05:11;;;;;;;11.20;9.60;;;;;;;;;;4931395;29;20041;-91
2024/01/18 12:07:39;;;;;;;12.27;8.82;;;;;;;;;;4975572;23;20042;-90
2024/01/18 12:10:14;;;;;;;11.05;9.77;;;;;;;;;;4981586;28;20054;-90
2024/01/18 12:12:51;;;;;;;12.63;9.38;;;;;;;;;;4980428;28;20034;-90
2024/01/18 12:15:20;;;;;;;11.57;9.63;;;;;;;;;;4995872;23;20047;-90
2024/01/18 12:18:45;;;;;;;9.68;8.27;;;;;;;;;;4980360;23;20053;-90
2024/01/18 12:21:17;;;;;;;11.90;10.23;;;;;;;;;;4938424;29;20036;-89
2024/01/18 12:24:12;;;;;;;12.43;9.77;;;;;;;;;;4929484;29;20028;-89
2024/01/18 12:26:41;;;;;;;12.88;10.73;;;;;;;;;;4959036;28;20020;-92
2024/01/18 12:29:20;;;;;;;11.90;9.93;;;;;;;;;;4963082;28;20019;-89
2024/01/18 12:32:27;;;;;;;12.32;9.32;;;;;;;;;;4962571;28;20035;-91
2024/01/18 12:40:15;;;;;;;9.85;8.70;;;;;;;;;;5826955;23;20039;-88
2024/01/18 18:05:46;;;;;;;13.23;8.85;;;;;;;;;;4928329;29;20043;-96
2024/01/18 18:08:12;;;;;;;13.55;10.25;;;;;;;;;;4948315;29;20031;-96
2024/01/18 18:10:38;;;;;;;16.42;10.82;;;;;;;;;;4931399;29;20082;-96
2024/01/18 18:13:08;;;;;;;13.20;9.85;;;;;;;;;;4943878;29;20039;-94
2024/01/18 18:15:33;;;;;;;15.20;11.27;;;;;;;;;;4923599;29;20024;-93
2024/01/18 18:18:00;;;;;;;13.45;10.27;;;;;;;;;;4928839;29;20051;-95
2024/01/18 18:20:28;;;;;;;13.25;10.25;;;;;;;;;;4938743;29;20032;-93
2024/01/18 18:22:53;;;;;;;14.43;10.30;;;;;;;;;;4916696;29;20032;-90
2024/01/18 18:25:19;;;;;;;15.45;11.63;;;;;;;;;;4915179;29;20475;-94
2024/01/18 18:27:44;;;;;;;18.02;11.73;;;;;;;;;;4922452;29;20102;-94
2024/01/18 18:30:10;;;;;;;14.40;10.55;;;;;;;;;;4923081;29;20031;-95
2024/01/18 18:32:36;;;;;;;12.75;10.25;;;;;;;;;;4922449;29;20024;-92
2024/01/18 18:35:02;;;;;;;14.32;11.48;;;;;;;;;;4921681;29;20034;-94
2024/01/18 18:37:27;;;;;;;15.48;10.73;;;;;;;;;;4902952;29;20478;-89
2024/01/18 18:39:53;;;;;;;15.82;11.98;;;;;;;;;;4915077;29;20394;-93
2024/01/18 18:42:18;;;;;;;18.10;11.68;;;;;;;;;;4939910;29;20039;-95
2024/01/18 18:44:44;;;;;;;16.52;11.95;;;;;;;;;;4923463;29;20032;-94
2024/01/18 18:47:09;;;;;;;16.42;12.15;;;;;;;;;;4923020;29;20035;-94
2024/01/18 18:49:36;;;;;;;19.13;11.93;;;;;;;;;;4908860;29;20058;-94
2024/01/18 18:52:02;;;;;;;18.20;13.15;;;;;;;;;;4922785;29;20427;-92
2024/01/18 18:54:27;;;;;;;18.33;12.30;;;;;;;;;;4922599;29;20135;-95
2024/01/18 18:56:53;;;;;;;15.63;11.20;;;;;;;;;;4922862;29;20028;-92
2024/01/18 18:59:20;;;;;;;16.67;11.35;;;;;;;;;;4924239;29;20036;-94
2024/01/18 19:01:45;;;;;;;15.48;10.70;;;;;;;;;;4920150;29;20028;-91
2024/01/18 19:04:11;;;;;;;19.90;13.05;;;;;;;;;;4939719;29;20051;-92
2024/01/18 19:06:36;;;;;;;16.35;12.82;;;;;;;;;;4922142;29;20039;-94
2024/01/18 19:09:02;;;;;;;20.67;13.65;;;;;;;;;;4922945;29;20058;-94
2024/01/18 19:11:31;;;;;;;17.48;12.35;;;;;;;;;;4924029;29;20039;-95
2024/01/18 19:14:00;;;;;;;18.67;12.70;;;;;;;;;;4932441;29;20087;-92
2024/01/18 19:16:42;;;;;;;18.73;12.35;;;;;;;;;;4913743;29;20024;-92
2024/01/18 19:19:31;;;;;;;18.85;12.82;;;;;;;;;;4936801;29;20047;-95
2024/01/18 19:21:57;;;;;;;19.27;12.65;;;;;;;;;;4938535;29;20099;-92
2024/01/18 19:24:32;;;;;;;22.48;13.93;;;;;;;;;;4927694;29;20478;-96
2024/01/18 19:27:14;;;;;;;19.45;12.90;;;;;;;;;;4949255;23;20046;-90
2024/01/18 19:29:45;;;;;;;25.80;15.55;;;;;;;;;;4934752;29;20049;-90
2024/01/18 19:32:10;;;;;;;17.17;12.45;;;;;;;;;;4934020;23;20060;-91
2024/01/18 19:34:35;;;;;;;16.10;11.75;;;;;;;;;;4887290;29;20057;-96
2024/01/18 19:37:01;;;;;;;16.65;11.05;;;;;;;;;;4883062;29;20060;-88
2024/01/18 19:39:26;;;;;;;17.77;11.60;;;;;;;;;;4882807;29;20020;-89
2024/01/18 19:41:52;;;;;;;16.42;11.50;;;;;;;;;;4913884;29;20039;-88
2024/01/18 19:44:17;;;;;;;20.40;12.80;;;;;;;;;;4883376;29;20032;-90
2024/01/18 19:46:45;;;;;;;17.63;12.68;;;;;;;;;;4893281;29;20032;-92
2024/01/18 19:49:11;;;;;;;16.67;12.30;;;;;;;;;;4884750;29;20029;-94
2024/01/18 19:51:36;;;;;;;19.42;14.02;;;;;;;;;;4904265;29;20039;-92
2024/01/18 19:54:02;;;;;;;16.13;11.60;;;;;;;;;;4901315;29;20032;-90
2024/01/18 19:56:28;;;;;;;19.10;12.57;;;;;;;;;;4868308;29;20439;-89
2024/01/18 19:58:53;;;;;;;16.90;11.05;;;;;;;;;;4888632;29;20068;-91
2024/01/18 20:01:19;;;;;;;17.45;12.38;;;;;;;;;;4897305;29;20506;-96
2024/01/18 20:03:44;;;;;;;19.17;11.98;;;;;;;;;;4895221;29;20099;-94
2024/01/18 20:06:10;;;;;;;22.77;15.40;;;;;;;;;;4912620;29;20032;-93
2024/01/18 20:08:41;;;;;;;24.70;16.45;;;;;;;;;;4888832;29;20031;-95
2024/01/18 20:11:07;;;;;;;26.50;17.58;;;;;;;;;;4898653;29;20041;-91
2024/01/18 20:13:34;;;;;;;41.55;19.08;;;;;;;;;;4891681;29;20033;-92
2024/01/18 20:16:06;;;;;;;27.05;19.25;;;;;;;;;;4891850;29;20040;-93
2024/01/18 20:18:33;;;;;;;47.05;25.77;;;;;;;;;;4907833;29;20066;-93
2024/01/18 20:20:58;;;;;;;27.05;17.60;;;;;;;;;;4890132;29;20024;-93
2024/01/18 20:23:24;;;;;;;24.05;16.30;;;;;;;;;;4875010;29;20040;-92
2024/01/18 20:25:55;;;;;;;56.95;26.83;;;;;;;;;;4979371;23;20035;-92
2024/01/18 20:28:24;;;;;;;30.02;18.55;;;;;;;;;;4928590;29;20058;-93
2024/01/18 20:30:51;;;;;;;26.25;16.60;;;;;;;;;;4941717;29;20057;-92
2024/01/18 20:33:18;;;;;;;29.63;18.35;;;;;;;;;;4955949;23;20089;-93
2024/01/18 20:35:45;;;;;;;34.90;20.75;;;;;;;;;;4957924;29;20039;-92
2024/01/18 20:38:11;;;;;;;26.25;17.17;;;;;;;;;;4964015;28;20035;-93
2024/01/18 20:40:43;;;;;;;31.45;18.20;;;;;;;;;;4966525;28;20079;-92
2024/01/18 20:43:19;;;;;;;25.73;15.35;;;;;;;;;;4923685;29;20042;-94
2024/01/18 20:45:46;;;;;;;18.42;12.68;;;;;;;;;;4935710;29;20042;-92
2024/01/18 20:48:14;;;;;;;18.70;13.35;;;;;;;;;;4924880;29;20047;-92
2024/01/18 20:50:50;;;;;;;21.27;13.05;;;;;;;;;;4952726;29;20042;-93
2024/01/18 20:53:16;;;;;;;22.02;14.20;;;;;;;;;;4966529;29;20019;-92
2024/01/18 20:55:48;;;;;;;26.85;18.05;;;;;;;;;;4951498;29;20039;-93
2024/01/18 20:58:14;;;;;;;22.80;14.45;;;;;;;;;;4967283;23;20051;-93
2024/01/18 21:00:39;;;;;;;18.42;14.43;;;;;;;;;;4946970;29;20577;-92
2024/01/18 21:03:12;;;;;;;17.42;12.55;;;;;;;;;;4944983;28;20059;-94
2024/01/18 21:05:37;;;;;;;20.42;14.15;;;;;;;;;;4958101;28;20507;-93
2024/01/18 21:08:05;;;;;;;18.35;12.60;;;;;;;;;;4970429;28;20039;-94
2024/01/18 21:10:30;;;;;;;17.52;13.13;;;;;;;;;;4983047;28;20083;-93
2024/01/18 21:13:04;;;;;;;20.05;14.82;;;;;;;;;;4954076;29;20398;-93
2024/01/18 21:15:30;;;;;;;21.38;14.70;;;;;;;;;;4931136;29;20043;-94
2024/01/18 21:18:00;;;;;;;19.58;13.70;;;;;;;;;;4934799;29;20027;-94
2024/01/18 21:20:29;;;;;;;23.95;15.00;;;;;;;;;;4964783;23;20021;-93
2024/01/18 21:22:54;;;;;;;26.43;16.10;;;;;;;;;;4937871;29;20027;-94
2024/01/18 21:25:21;;;;;;;22.30;14.77;;;;;;;;;;4917177;29;20132;-94
2024/01/18 21:27:47;;;;;;;21.70;14.15;;;;;;;;;;4947739;29;20030;-94
2024/01/18 21:30:13;;;;;;;22.23;14.60;;;;;;;;;;4934568;29;20027;-94
2024/01/18 21:32:49;;;;;;;21.23;14.57;;;;;;;;;;4991859;23;20090;-93
2024/01/18 21:35:15;;;;;;;21.60;14.40;;;;;;;;;;4966490;29;20038;-94
2024/01/18 21:37:46;;;;;;;21.10;14.60;;;;;;;;;;4951654;29;20020;-93
2024/01/18 21:40:15;;;;;;;21.52;14.15;;;;;;;;;;4931207;29;20035;-92
2024/01/18 21:43:02;;;;;;;21.70;15.55;;;;;;;;;;4932990;29;20034;-93
2024/01/18 21:45:37;;;;;;;25.00;15.82;;;;;;;;;;4936892;29;20032;-94
2024/01/18 21:48:10;;;;;;;25.30;17.15;;;;;;;;;;4936685;23;20060;-93
2024/01/18 21:50:39;;;;;;;22.33;15.38;;;;;;;;;;4974538;28;20043;-93
2024/01/18 21:53:06;;;;;;;25.70;18.23;;;;;;;;;;4954082;29;20102;-93
2024/01/18 21:55:53;;;;;;;23.27;17.30;;;;;;;;;;4934117;29;20042;-93
2024/01/18 22:00:50;;;;;;;22.70;17.17;;;;;;;;;;4952479;29;20054;-93
2024/01/18 22:03:17;;;;;;;22.77;16.90;;;;;;;;;;4943196;29;20269;-93
2024/01/18 22:05:44;;;;;;;25.63;17.08;;;;;;;;;;4945708;29;20115;-94
2024/01/18 22:08:15;;;;;;;23.98;17.08;;;;;;;;;;4967966;23;20058;-93
2024/01/18 22:10:45;;;;;;;20.98;15.48;;;;;;;;;;4958899;28;20066;-93
2024/01/18 22:13:12;;;;;;;25.75;16.48;;;;;;;;;;4963103;29;20494;-93
2024/01/18 22:15:39;;;;;;;24.20;17.80;;;;;;;;;;4944475;29;20118;-93
2024/01/18 22:18:08;;;;;;;26.75;17.52;;;;;;;;;;4953851;23;20385;-93
2024/01/18 22:20:35;;;;;;;23.27;16.42;;;;;;;;;;4975620;28;20536;-94
2024/01/18 22:23:04;;;;;;;24.35;16.42;;;;;;;;;;4946925;29;20039;-91
2024/01/18 22:25:34;;;;;;;25.00;14.98;;;;;;;;;;4950914;29;20082;-92
2024/01/18 22:28:00;;;;;;;23.95;14.57;;;;;;;;;;4967422;29;20374;-93
2024/01/18 22:30:30;;;;;;;20.98;15.20;;;;;;;;;;4947879;29;20039;-93
2024/01/18 22:35:23;;;;;;;20.73;14.27;;;;;;;;;;4969232;23;20051;-93
2024/01/18 22:38:15;;;;;;;19.17;13.15;;;;;;;;;;4946750;23;20052;-92
2024/01/18 22:40:52;;;;;;;20.05;13.48;;;;;;;;;;4939902;23;20668;-93
2024/01/18 22:43:18;;;;;;;18.63;13.57;;;;;;;;;;4930533;29;20080;-93
2024/01/18 22:45:45;;;;;;;19.63;13.75;;;;;;;;;;4954551;29;20007;-91
2024/01/18 22:48:31;;;;;;;23.42;14.45;;;;;;;;;;4926083;29;20024;-92
2024/01/18 22:50:56;;;;;;;19.42;13.82;;;;;;;;;;4928279;29;20043;-92
2024/01/18 22:53:34;;;;;;;21.58;14.05;;;;;;;;;;4935839;29;20032;-94
2024/01/18 22:56:00;;;;;;;21.77;14.20;;;;;;;;;;5038575;23;20064;-93
2024/01/18 22:58:25;;;;;;;17.95;13.23;;;;;;;;;;4946269;23;20054;-93
2024/01/18 23:00:53;;;;;;;17.77;14.05;;;;;;;;;;4943022;23;20047;-92
2024/01/18 23:03:26;;;;;;;18.63;13.43;;;;;;;;;;4929296;29;20040;-93
2024/01/18 23:05:55;;;;;;;23.05;14.77;;;;;;;;;;4917614;29;20036;-93
2024/01/18 23:08:20;;;;;;;21.25;14.15;;;;;;;;;;4901416;29;20036;-95
2024/01/18 23:11:30;;;;;;;20.63;13.10;;;;;;;;;;4939433;23;20054;-95
2024/01/18 23:14:41;;;;;;;22.02;14.40;;;;;;;;;;4961198;28;20035;-93
2024/01/18 23:17:20;;;;;;;19.77;14.88;;;;;;;;;;4975580;28;20015;-93
2024/01/18 23:20:08;;;;;;;21.60;14.25;;;;;;;;;;4946530;29;20048;-94
2024/01/18 23:22:41;;;;;;;18.55;13.02;;;;;;;;;;4954960;23;20059;-95
2024/01/18 23:25:30;;;;;;;21.13;15.45;;;;;;;;;;4898411;29;20074;-94
2024/01/18 23:28:05;;;;;;;23.38;14.35;;;;;;;;;;4910378;29;20036;-92
2024/01/18 23:30:41;;;;;;;19.90;12.88;;;;;;;;;;4918891;29;20037;-92
2024/01/18 23:33:08;;;;;;;19.35;12.40;;;;;;;;;;4929335;29;20023;-92
2024/01/18 23:35:33;;;;;;;20.88;13.60;;;;;;;;;;4899147;29;20063;-93
2024/01/18 23:37:59;;;;;;;20.77;14.77;;;;;;;;;;4920001;29;20033;-92
2024/01/18 23:40:27;;;;;;;21.80;15.02;;;;;;;;;;4918117;29;20063;-93
2024/01/18 23:43:07;;;;;;;23.90;15.98;;;;;;;;;;4925587;29;20031;-92
